sensor_id;sensor_type;location;lat;lon;timestamp;P1;durP1;ratioP1;P2;durP2;ratioP2
22622;SDS011;11478;51.094;7.030;2023-11-21T00:00:46;22.60;;;11.75;;
22622;SDS011;11478;51.094;7.030;2023-11-21T00:03:12;22.67;;;11.73;;
22622;SDS011;11478;51.094;7.030;2023-11-21T00:05:43;27.88;;;14.05;;
22622;SDS011;11478;51.094;7.030;2023-11-21T00:08:09;31.23;;;14.45;;
22622;SDS011;11478;51.094;7.030;2023-11-21T00:10:35;31.70;;;12.85;;
22622;SDS011;11478;51.094;7.030;2023-11-21T00:13:03;23.35;;;13.20;;
22622;SDS011;11478;51.094;7.030;2023-11-21T00:15:30;21.05;;;11.27;;
22622;SDS011;11478;51.094;7.030;2023-11-21T00:17:56;48.50;;;12.77;;
22622;SDS011;11478;51.094;7.030;2023-11-21T00:20:22;23.88;;;11.80;;
22622;SDS011;11478;51.094;7.030;2023-11-21T00:22:49;19.35;;;11.18;;
22622;SDS011;11478;51.094;7.030;2023-11-21T00:25:24;27.40;;;12.07;;
22622;SDS011;11478;51.094;7.030;2023-11-21T00:27:50;42.00;;;14.25;;
22622;SDS011;11478;51.094;7.030;2023-11-21T00:30:20;26.20;;;12.48;;
22622;SDS011;11478;51.094;7.030;2023-11-21T00:32:47;23.27;;;12.25;;
22622;SDS011;11478;51.094;7.030;2023-11-21T00:40:45;25.63;;;12.70;;
22622;SDS011;11478;51.094;7.030;2023-11-21T00:43:13;42.38;;;12.98;;
22622;SDS011;11478;51.094;7.030;2023-11-21T00:45:39;38.03;;;13.73;;
22622;SDS011;11478;51.094;7.030;2023-11-21T00:48:05;76.88;;;14.73;;
22622;SDS011;11478;51.094;7.030;2023-11-21T00:50:31;47.10;;;13.10;;
22622;SDS011;11478;51.094;7.030;2023-11-21T00:53:12;22.85;;;12.52;;
22622;SDS011;11478;51.094;7.030;2023-11-21T00:55:38;162.60;;;16.60;;
22622;SDS011;11478;51.094;7.030;2023-11-21T01:00:50;28.42;;;13.40;;
22622;SDS011;11478;51.094;7.030;2023-11-21T01:03:22;175.95;;;17.45;;
22622;SDS011;11478;51.094;7.030;2023-11-21T01:05:48;40.65;;;14.50;;
22622;SDS011;11478;51.094;7.030;2023-11-21T01:08:18;40.35;;;14.43;;
22622;SDS011;11478;51.094;7.030;2023-11-21T01:10:45;27.48;;;12.88;;
22622;SDS011;11478;51.094;7.030;2023-11-21T01:13:11;31.17;;;14.60;;
22622;SDS011;11478;51.094;7.030;2023-11-21T01:15:37;25.95;;;14.02;;
22622;SDS011;11478;51.094;7.030;2023-11-21T01:18:09;33.72;;;15.15;;
22622;SDS011;11478;51.094;7.030;2023-11-21T01:20:35;37.97;;;15.10;;
22622;SDS011;11478;51.094;7.030;2023-11-21T01:23:09;27.88;;;14.55;;
22622;SDS011;11478;51.094;7.030;2023-11-21T01:25:35;25.50;;;13.38;;
22622;SDS011;11478;51.094;7.030;2023-11-21T01:28:13;30.70;;;13.60;;
22622;SDS011;11478;51.094;7.030;2023-11-21T01:30:39;41.95;;;15.10;;
22622;SDS011;11478;51.094;7.030;2023-11-21T01:33:05;36.67;;;15.10;;
22622;SDS011;11478;51.094;7.030;2023-11-21T01:35:31;28.52;;;14.30;;
22622;SDS011;11478;51.094;7.030;2023-11-21T01:40:43;23.15;;;13.18;;
22622;SDS011;11478;51.094;7.030;2023-11-21T01:43:16;26.38;;;14.55;;
22622;SDS011;11478;51.094;7.030;2023-11-21T01:45:42;26.90;;;13.90;;
22622;SDS011;11478;51.094;7.030;2023-11-21T01:48:23;22.98;;;12.57;;
22622;SDS011;11478;51.094;7.030;2023-11-21T01:50:49;46.80;;;18.33;;
22622;SDS011;11478;51.094;7.030;2023-11-21T01:56:16;28.40;;;14.88;;
22622;SDS011;11478;51.094;7.030;2023-11-21T01:58:42;32.60;;;14.15;;
22622;SDS011;11478;51.094;7.030;2023-11-21T02:01:08;33.67;;;15.48;;
22622;SDS011;11478;51.094;7.030;2023-11-21T02:03:43;27.80;;;14.70;;
22622;SDS011;11478;51.094;7.030;2023-11-21T02:08:43;21.95;;;12.60;;
22622;SDS011;11478;51.094;7.030;2023-11-21T02:11:09;27.88;;;14.75;;
22622;SDS011;11478;51.094;7.030;2023-11-21T02:13:38;27.63;;;14.77;;
22622;SDS011;11478;51.094;7.030;2023-11-21T02:16:09;27.60;;;15.40;;
22622;SDS011;11478;51.094;7.030;2023-11-21T02:18:41;26.05;;;14.30;;
22622;SDS011;11478;51.094;7.030;2023-11-21T02:21:07;29.77;;;13.88;;
22622;SDS011;11478;51.094;7.030;2023-11-21T02:23:49;29.08;;;15.40;;
22622;SDS011;11478;51.094;7.030;2023-11-21T02:26:16;27.25;;;14.50;;
22622;SDS011;11478;51.094;7.030;2023-11-21T02:28:46;34.88;;;16.17;;
22622;SDS011;11478;51.094;7.030;2023-11-21T02:31:13;34.35;;;16.60;;
22622;SDS011;11478;51.094;7.030;2023-11-21T02:33:46;33.40;;;17.85;;
22622;SDS011;11478;51.094;7.030;2023-11-21T02:36:12;43.90;;;18.23;;
22622;SDS011;11478;51.094;7.030;2023-11-21T02:38:41;40.20;;;18.42;;
22622;SDS011;11478;51.094;7.030;2023-11-21T02:41:07;32.72;;;15.73;;
22622;SDS011;11478;51.094;7.030;2023-11-21T02:43:37;38.55;;;17.02;;
22622;SDS011;11478;51.094;7.030;2023-11-21T02:46:03;39.47;;;19.08;;
22622;SDS011;11478;51.094;7.030;2023-11-21T02:51:16;36.47;;;17.48;;
22622;SDS011;11478;51.094;7.030;2023-11-21T02:53:52;38.33;;;17.95;;
22622;SDS011;11478;51.094;7.030;2023-11-21T02:56:18;37.90;;;17.73;;
22622;SDS011;11478;51.094;7.030;2023-11-21T02:58:46;38.55;;;19.00;;
22622;SDS011;11478;51.094;7.030;2023-11-21T03:01:11;45.60;;;20.23;;
22622;SDS011;11478;51.094;7.030;2023-11-21T03:03:38;39.03;;;17.80;;
22622;SDS011;11478;51.094;7.030;2023-11-21T03:06:05;35.92;;;18.08;;
22622;SDS011;11478;51.094;7.030;2023-11-21T03:08:32;40.00;;;18.70;;
22622;SDS011;11478;51.094;7.030;2023-11-21T03:10:58;47.70;;;19.35;;
22622;SDS011;11478;51.094;7.030;2023-11-21T03:15:53;36.05;;;17.15;;
22622;SDS011;11478;51.094;7.030;2023-11-21T03:18:36;30.58;;;17.38;;
22622;SDS011;11478;51.094;7.030;2023-11-21T03:21:03;39.72;;;17.88;;
22622;SDS011;11478;51.094;7.030;2023-11-21T03:23:30;36.33;;;18.15;;
22622;SDS011;11478;51.094;7.030;2023-11-21T03:25:56;47.60;;;19.45;;
22622;SDS011;11478;51.094;7.030;2023-11-21T03:28:25;37.05;;;18.90;;
22622;SDS011;11478;51.094;7.030;2023-11-21T03:30:53;44.47;;;20.13;;
22622;SDS011;11478;51.094;7.030;2023-11-21T03:33:22;41.95;;;19.35;;
22622;SDS011;11478;51.094;7.030;2023-11-21T03:35:48;42.20;;;19.98;;
22622;SDS011;11478;51.094;7.030;2023-11-21T03:38:19;41.63;;;19.40;;
22622;SDS011;11478;51.094;7.030;2023-11-21T03:43:19;39.63;;;18.25;;
22622;SDS011;11478;51.094;7.030;2023-11-21T03:45:58;39.70;;;19.80;;
22622;SDS011;11478;51.094;7.030;2023-11-21T03:48:24;43.13;;;19.33;;
22622;SDS011;11478;51.094;7.030;2023-11-21T03:50:51;40.85;;;18.92;;
22622;SDS011;11478;51.094;7.030;2023-11-21T03:53:16;37.15;;;17.63;;
22622;SDS011;11478;51.094;7.030;2023-11-21T03:55:45;36.78;;;18.63;;
22622;SDS011;11478;51.094;7.030;2023-11-21T03:58:11;36.95;;;18.83;;
22622;SDS011;11478;51.094;7.030;2023-11-21T04:00:44;34.65;;;17.88;;
22622;SDS011;11478;51.094;7.030;2023-11-21T04:03:09;28.80;;;16.58;;
22622;SDS011;11478;51.094;7.030;2023-11-21T04:05:45;39.58;;;17.85;;
22622;SDS011;11478;51.094;7.030;2023-11-21T04:08:11;37.03;;;18.20;;
22622;SDS011;11478;51.094;7.030;2023-11-21T04:10:44;36.92;;;16.70;;
22622;SDS011;11478;51.094;7.030;2023-11-21T04:13:10;34.37;;;17.90;;
22622;SDS011;11478;51.094;7.030;2023-11-21T04:15:36;42.67;;;17.63;;
22622;SDS011;11478;51.094;7.030;2023-11-21T04:18:02;36.55;;;17.00;;
22622;SDS011;11478;51.094;7.030;2023-11-21T04:20:30;45.60;;;18.27;;
22622;SDS011;11478;51.094;7.030;2023-11-21T04:22:56;34.08;;;15.73;;
22622;SDS011;11478;51.094;7.030;2023-11-21T04:25:24;45.67;;;19.02;;
22622;SDS011;11478;51.094;7.030;2023-11-21T04:27:50;39.33;;;17.98;;
22622;SDS011;11478;51.094;7.030;2023-11-21T04:30:17;37.03;;;16.85;;
22622;SDS011;11478;51.094;7.030;2023-11-21T04:32:43;40.28;;;18.27;;
22622;SDS011;11478;51.094;7.030;2023-11-21T04:35:15;45.17;;;19.42;;
22622;SDS011;11478;51.094;7.030;2023-11-21T04:37:41;46.35;;;19.17;;
22622;SDS011;11478;51.094;7.030;2023-11-21T04:40:09;37.83;;;17.77;;
22622;SDS011;11478;51.094;7.030;2023-11-21T04:42:35;35.80;;;16.63;;
22622;SDS011;11478;51.094;7.030;2023-11-21T04:45:01;37.58;;;18.17;;
22622;SDS011;11478;51.094;7.030;2023-11-21T04:47:32;38.08;;;17.27;;
22622;SDS011;11478;51.094;7.030;2023-11-21T04:49:58;37.72;;;17.10;;
22622;SDS011;11478;51.094;7.030;2023-11-21T04:52:24;34.78;;;16.67;;
22622;SDS011;11478;51.094;7.030;2023-11-21T04:54:52;39.30;;;17.27;;
22622;SDS011;11478;51.094;7.030;2023-11-21T04:57:20;42.33;;;17.58;;
22622;SDS011;11478;51.094;7.030;2023-11-21T04:59:48;34.95;;;16.63;;
22622;SDS011;11478;51.094;7.030;2023-11-21T05:02:14;43.83;;;18.52;;
22622;SDS011;11478;51.094;7.030;2023-11-21T05:04:40;45.22;;;18.38;;
22622;SDS011;11478;51.094;7.030;2023-11-21T05:07:07;48.08;;;17.52;;
22622;SDS011;11478;51.094;7.030;2023-11-21T05:09:45;38.85;;;17.80;;
22622;SDS011;11478;51.094;7.030;2023-11-21T05:12:11;41.50;;;18.77;;
22622;SDS011;11478;51.094;7.030;2023-11-21T05:14:39;34.80;;;16.50;;
22622;SDS011;11478;51.094;7.030;2023-11-21T05:17:05;34.30;;;16.35;;
22622;SDS011;11478;51.094;7.030;2023-11-21T05:19:41;35.72;;;17.05;;
22622;SDS011;11478;51.094;7.030;2023-11-21T05:22:08;47.10;;;17.55;;
22622;SDS011;11478;51.094;7.030;2023-11-21T05:24:35;42.15;;;17.38;;
22622;SDS011;11478;51.094;7.030;2023-11-21T05:27:01;35.85;;;16.92;;
22622;SDS011;11478;51.094;7.030;2023-11-21T05:36:11;34.33;;;16.40;;
22622;SDS011;11478;51.094;7.030;2023-11-21T05:45:12;37.55;;;17.27;;
22622;SDS011;11478;51.094;7.030;2023-11-21T05:51:01;44.17;;;18.15;;
22622;SDS011;11478;51.094;7.030;2023-11-21T05:56:23;38.60;;;17.48;;
22622;SDS011;11478;51.094;7.030;2023-11-21T05:58:49;35.45;;;17.02;;
22622;SDS011;11478;51.094;7.030;2023-11-21T06:08:02;33.03;;;14.40;;
22622;SDS011;11478;51.094;7.030;2023-11-21T06:10:27;31.55;;;15.63;;
22622;SDS011;11478;51.094;7.030;2023-11-21T06:12:53;54.47;;;18.30;;
22622;SDS011;11478;51.094;7.030;2023-11-21T06:18:26;37.95;;;16.38;;
22622;SDS011;11478;51.094;7.030;2023-11-21T06:23:41;33.03;;;15.35;;
22622;SDS011;11478;51.094;7.030;2023-11-21T06:26:07;29.70;;;15.15;;
22622;SDS011;11478;51.094;7.030;2023-11-21T06:35:06;45.20;;;17.52;;
22622;SDS011;11478;51.094;7.030;2023-11-21T06:40:37;42.53;;;17.48;;
22622;SDS011;11478;51.094;7.030;2023-11-21T06:43:21;45.60;;;18.08;;
22622;SDS011;11478;51.094;7.030;2023-11-21T06:45:47;46.42;;;18.23;;
22622;SDS011;11478;51.094;7.030;2023-11-21T06:48:26;47.17;;;17.67;;
22622;SDS011;11478;51.094;7.030;2023-11-21T06:50:52;39.80;;;17.52;;
22622;SDS011;11478;51.094;7.030;2023-11-21T06:56:14;41.05;;;18.42;;
22622;SDS011;11478;51.094;7.030;2023-11-21T06:59:04;44.15;;;17.98;;
22622;SDS011;11478;51.094;7.030;2023-11-21T07:04:19;41.83;;;17.45;;
22622;SDS011;11478;51.094;7.030;2023-11-21T07:06:45;53.38;;;20.15;;
22622;SDS011;11478;51.094;7.030;2023-11-21T07:09:14;47.10;;;18.65;;
22622;SDS011;11478;51.094;7.030;2023-11-21T07:11:40;43.50;;;18.05;;
22622;SDS011;11478;51.094;7.030;2023-11-21T07:14:07;37.80;;;17.55;;
22622;SDS011;11478;51.094;7.030;2023-11-21T07:16:37;38.72;;;18.63;;
22622;SDS011;11478;51.094;7.030;2023-11-21T07:19:03;45.75;;;18.45;;
22622;SDS011;11478;51.094;7.030;2023-11-21T07:21:36;49.30;;;18.77;;
22622;SDS011;11478;51.094;7.030;2023-11-21T07:24:20;52.92;;;20.27;;
22622;SDS011;11478;51.094;7.030;2023-11-21T07:26:48;57.30;;;21.23;;
22622;SDS011;11478;51.094;7.030;2023-11-21T07:29:21;58.30;;;21.70;;
22622;SDS011;11478;51.094;7.030;2023-11-21T07:31:53;59.33;;;21.13;;
22622;SDS011;11478;51.094;7.030;2023-11-21T07:34:20;93.90;;;24.63;;
22622;SDS011;11478;51.094;7.030;2023-11-21T07:36:47;100.72;;;25.30;;
22622;SDS011;11478;51.094;7.030;2023-11-21T07:39:13;75.30;;;22.20;;
22622;SDS011;11478;51.094;7.030;2023-11-21T07:41:48;78.50;;;24.20;;
22622;SDS011;11478;51.094;7.030;2023-11-21T07:44:17;87.30;;;24.88;;
22622;SDS011;11478;51.094;7.030;2023-11-21T07:46:46;91.32;;;26.95;;
22622;SDS011;11478;51.094;7.030;2023-11-21T07:49:12;107.78;;;26.88;;
22622;SDS011;11478;51.094;7.030;2023-11-21T07:51:45;73.68;;;23.73;;
22622;SDS011;11478;51.094;7.030;2023-11-21T07:54:11;77.13;;;24.27;;
22622;SDS011;11478;51.094;7.030;2023-11-21T07:56:38;99.32;;;28.42;;
22622;SDS011;11478;51.094;7.030;2023-11-21T07:59:04;106.25;;;27.77;;
22622;SDS011;11478;51.094;7.030;2023-11-21T08:01:31;100.82;;;28.48;;
22622;SDS011;11478;51.094;7.030;2023-11-21T08:03:58;97.40;;;25.90;;
22622;SDS011;11478;51.094;7.030;2023-11-21T08:06:29;102.85;;;26.83;;
22622;SDS011;11478;51.094;7.030;2023-11-21T08:08:58;94.78;;;27.35;;
22622;SDS011;11478;51.094;7.030;2023-11-21T08:11:24;93.70;;;26.55;;
22622;SDS011;11478;51.094;7.030;2023-11-21T08:13:51;113.22;;;29.60;;
22622;SDS011;11478;51.094;7.030;2023-11-21T08:16:18;97.30;;;27.50;;
22622;SDS011;11478;51.094;7.030;2023-11-21T08:18:44;96.47;;;26.08;;
22622;SDS011;11478;51.094;7.030;2023-11-21T08:21:12;90.70;;;26.38;;
22622;SDS011;11478;51.094;7.030;2023-11-21T08:23:39;90.45;;;27.02;;
22622;SDS011;11478;51.094;7.030;2023-11-21T08:26:06;102.20;;;29.42;;
22622;SDS011;11478;51.094;7.030;2023-11-21T08:28:32;103.93;;;28.02;;
22622;SDS011;11478;51.094;7.030;2023-11-21T08:30:58;94.55;;;29.00;;
22622;SDS011;11478;51.094;7.030;2023-11-21T08:33:25;104.78;;;29.30;;
22622;SDS011;11478;51.094;7.030;2023-11-21T08:35:54;110.97;;;29.42;;
22622;SDS011;11478;51.094;7.030;2023-11-21T08:38:23;115.57;;;33.15;;
22622;SDS011;11478;51.094;7.030;2023-11-21T08:40:49;111.15;;;34.45;;
22622;SDS011;11478;51.094;7.030;2023-11-21T08:43:16;129.18;;;36.03;;
22622;SDS011;11478;51.094;7.030;2023-11-21T08:45:44;136.20;;;40.55;;
22622;SDS011;11478;51.094;7.030;2023-11-21T08:48:13;155.75;;;43.75;;
22622;SDS011;11478;51.094;7.030;2023-11-21T08:50:38;144.82;;;41.88;;
22622;SDS011;11478;51.094;7.030;2023-11-21T08:53:08;129.90;;;39.63;;
22622;SDS011;11478;51.094;7.030;2023-11-21T08:55:36;129.07;;;38.20;;
22622;SDS011;11478;51.094;7.030;2023-11-21T08:58:03;128.57;;;40.97;;
22622;SDS011;11478;51.094;7.030;2023-11-21T09:00:30;141.10;;;39.33;;
22622;SDS011;11478;51.094;7.030;2023-11-21T09:03:03;136.82;;;38.83;;
22622;SDS011;11478;51.094;7.030;2023-11-21T09:05:33;156.20;;;42.30;;
22622;SDS011;11478;51.094;7.030;2023-11-21T09:08:03;145.90;;;42.00;;
22622;SDS011;11478;51.094;7.030;2023-11-21T09:10:29;127.72;;;39.35;;
22622;SDS011;11478;51.094;7.030;2023-11-21T09:12:57;138.52;;;40.75;;
22622;SDS011;11478;51.094;7.030;2023-11-21T09:15:24;140.45;;;43.67;;
22622;SDS011;11478;51.094;7.030;2023-11-21T09:17:57;159.63;;;51.80;;
22622;SDS011;11478;51.094;7.030;2023-11-21T09:20:26;138.95;;;46.75;;
22622;SDS011;11478;51.094;7.030;2023-11-21T09:22:52;122.05;;;41.65;;
22622;SDS011;11478;51.094;7.030;2023-11-21T09:25:19;137.68;;;43.00;;
22622;SDS011;11478;51.094;7.030;2023-11-21T09:27:50;131.82;;;41.58;;
22622;SDS011;11478;51.094;7.030;2023-11-21T09:30:16;128.05;;;43.03;;
22622;SDS011;11478;51.094;7.030;2023-11-21T09:32:42;116.40;;;39.25;;
22622;SDS011;11478;51.094;7.030;2023-11-21T09:35:10;138.52;;;40.80;;
22622;SDS011;11478;51.094;7.030;2023-11-21T09:37:37;140.77;;;43.03;;
22622;SDS011;11478;51.094;7.030;2023-11-21T09:40:04;125.93;;;39.60;;
22622;SDS011;11478;51.094;7.030;2023-11-21T09:42:42;117.05;;;39.45;;
22622;SDS011;11478;51.094;7.030;2023-11-21T09:47:57;113.25;;;39.20;;
22622;SDS011;11478;51.094;7.030;2023-11-21T09:50:23;117.05;;;39.75;;
22622;SDS011;11478;51.094;7.030;2023-11-21T09:55:52;115.28;;;38.78;;
22622;SDS011;11478;51.094;7.030;2023-11-21T09:58:19;112.68;;;39.33;;
22622;SDS011;11478;51.094;7.030;2023-11-21T10:00:49;103.38;;;38.13;;
22622;SDS011;11478;51.094;7.030;2023-11-21T10:03:18;114.95;;;38.45;;
22622;SDS011;11478;51.094;7.030;2023-11-21T10:05:44;100.60;;;37.17;;
22622;SDS011;11478;51.094;7.030;2023-11-21T10:08:32;98.07;;;35.75;;
22622;SDS011;11478;51.094;7.030;2023-11-21T10:10:59;123.68;;;42.92;;
22622;SDS011;11478;51.094;7.030;2023-11-21T10:13:28;116.53;;;41.58;;
22622;SDS011;11478;51.094;7.030;2023-11-21T10:15:56;112.80;;;40.45;;
22622;SDS011;11478;51.094;7.030;2023-11-21T10:18:28;115.45;;;42.17;;
22622;SDS011;11478;51.094;7.030;2023-11-21T10:20:57;103.78;;;38.78;;
22622;SDS011;11478;51.094;7.030;2023-11-21T10:23:29;108.05;;;39.42;;
22622;SDS011;11478;51.094;7.030;2023-11-21T10:25:56;125.95;;;43.03;;
22622;SDS011;11478;51.094;7.030;2023-11-21T10:28:26;137.07;;;41.55;;
22622;SDS011;11478;51.094;7.030;2023-11-21T10:30:57;116.18;;;40.80;;
22622;SDS011;11478;51.094;7.030;2023-11-21T10:33:35;120.53;;;43.03;;
22622;SDS011;11478;51.094;7.030;2023-11-21T10:38:33;111.50;;;39.92;;
22622;SDS011;11478;51.094;7.030;2023-11-21T10:41:18;106.15;;;41.00;;
22622;SDS011;11478;51.094;7.030;2023-11-21T10:43:54;119.38;;;41.80;;
22622;SDS011;11478;51.094;7.030;2023-11-21T10:46:41;120.35;;;42.30;;
22622;SDS011;11478;51.094;7.030;2023-11-21T10:49:13;114.85;;;41.85;;
22622;SDS011;11478;51.094;7.030;2023-11-21T10:51:40;116.03;;;41.90;;
22622;SDS011;11478;51.094;7.030;2023-11-21T10:54:10;112.65;;;39.17;;
22622;SDS011;11478;51.094;7.030;2023-11-21T10:56:37;117.35;;;43.55;;
22622;SDS011;11478;51.094;7.030;2023-11-21T11:02:25;94.05;;;38.90;;
22622;SDS011;11478;51.094;7.030;2023-11-21T11:04:57;121.18;;;43.05;;
22622;SDS011;11478;51.094;7.030;2023-11-21T11:07:27;103.60;;;39.95;;
22622;SDS011;11478;51.094;7.030;2023-11-21T11:09:55;110.93;;;41.88;;
22622;SDS011;11478;51.094;7.030;2023-11-21T11:12:23;95.25;;;39.25;;
22622;SDS011;11478;51.094;7.030;2023-11-21T11:14:49;104.90;;;40.85;;
22622;SDS011;11478;51.094;7.030;2023-11-21T11:17:23;106.25;;;42.90;;
22622;SDS011;11478;51.094;7.030;2023-11-21T11:19:49;103.10;;;42.33;;
22622;SDS011;11478;51.094;7.030;2023-11-21T11:36:04;109.30;;;41.25;;
22622;SDS011;11478;51.094;7.030;2023-11-21T11:38:47;113.40;;;42.45;;
22622;SDS011;11478;51.094;7.030;2023-11-21T11:41:27;112.85;;;42.60;;
22622;SDS011;11478;51.094;7.030;2023-11-21T11:44:02;136.43;;;47.75;;
22622;SDS011;11478;51.094;7.030;2023-11-21T11:46:42;125.68;;;45.10;;
22622;SDS011;11478;51.094;7.030;2023-11-21T11:49:28;130.05;;;47.72;;
22622;SDS011;11478;51.094;7.030;2023-11-21T11:55:02;133.87;;;46.53;;
22622;SDS011;11478;51.094;7.030;2023-11-21T11:57:38;117.28;;;45.13;;
22622;SDS011;11478;51.094;7.030;2023-11-21T12:00:11;109.22;;;43.30;;
22622;SDS011;11478;51.094;7.030;2023-11-21T12:03:16;117.30;;;44.00;;
22622;SDS011;11478;51.094;7.030;2023-11-21T12:05:36;114.93;;;43.72;;
22622;SDS011;11478;51.094;7.030;2023-11-21T12:08:06;124.25;;;45.10;;
22622;SDS011;11478;51.094;7.030;2023-11-21T12:10:33;104.72;;;40.58;;
22622;SDS011;11478;51.094;7.030;2023-11-21T12:13:06;109.00;;;39.42;;
22622;SDS011;11478;51.094;7.030;2023-11-21T12:15:38;108.15;;;40.40;;
22622;SDS011;11478;51.094;7.030;2023-11-21T12:20:52;98.78;;;37.05;;
22622;SDS011;11478;51.094;7.030;2023-11-21T12:23:19;99.88;;;38.92;;
22622;SDS011;11478;51.094;7.030;2023-11-21T12:25:46;93.45;;;37.28;;
22622;SDS011;11478;51.094;7.030;2023-11-21T12:28:12;99.38;;;37.95;;
22622;SDS011;11478;51.094;7.030;2023-11-21T12:30:38;106.03;;;39.85;;
22622;SDS011;11478;51.094;7.030;2023-11-21T12:33:04;92.10;;;36.45;;
22622;SDS011;11478;51.094;7.030;2023-11-21T12:35:34;86.93;;;34.03;;
22622;SDS011;11478;51.094;7.030;2023-11-21T12:38:02;86.05;;;34.60;;
22622;SDS011;11478;51.094;7.030;2023-11-21T12:40:29;75.53;;;30.95;;
22622;SDS011;11478;51.094;7.030;2023-11-21T12:42:57;67.75;;;28.67;;
22622;SDS011;11478;51.094;7.030;2023-11-21T12:45:24;67.57;;;27.70;;
22622;SDS011;11478;51.094;7.030;2023-11-21T12:48:04;69.97;;;29.67;;
22622;SDS011;11478;51.094;7.030;2023-11-21T12:50:36;67.78;;;28.02;;
22622;SDS011;11478;51.094;7.030;2023-11-21T12:53:10;61.38;;;26.25;;
22622;SDS011;11478;51.094;7.030;2023-11-21T12:55:43;66.28;;;27.10;;
22622;SDS011;11478;51.094;7.030;2023-11-21T12:58:15;61.77;;;27.10;;
22622;SDS011;11478;51.094;7.030;2023-11-21T13:00:45;66.25;;;27.75;;
22622;SDS011;11478;51.094;7.030;2023-11-21T13:03:14;63.70;;;28.08;;
22622;SDS011;11478;51.094;7.030;2023-11-21T13:05:48;69.32;;;28.63;;
22622;SDS011;11478;51.094;7.030;2023-11-21T13:08:19;68.72;;;28.80;;
22622;SDS011;11478;51.094;7.030;2023-11-21T13:10:50;69.28;;;29.00;;
22622;SDS011;11478;51.094;7.030;2023-11-21T13:13:21;65.10;;;27.27;;
22622;SDS011;11478;51.094;7.030;2023-11-21T13:15:48;70.90;;;29.60;;
22622;SDS011;11478;51.094;7.030;2023-11-21T13:18:18;74.03;;;29.50;;
22622;SDS011;11478;51.094;7.030;2023-11-21T13:20:53;70.82;;;28.20;;
22622;SDS011;11478;51.094;7.030;2023-11-21T13:23:20;74.53;;;28.20;;
22622;SDS011;11478;51.094;7.030;2023-11-21T13:25:48;70.50;;;28.70;;
22622;SDS011;11478;51.094;7.030;2023-11-21T13:28:14;73.93;;;27.95;;
22622;SDS011;11478;51.094;7.030;2023-11-21T13:30:44;67.63;;;27.15;;
22622;SDS011;11478;51.094;7.030;2023-11-21T13:33:10;72.07;;;28.10;;
22622;SDS011;11478;51.094;7.030;2023-11-21T13:35:42;73.53;;;30.90;;
22622;SDS011;11478;51.094;7.030;2023-11-21T13:40:55;71.57;;;28.42;;
22622;SDS011;11478;51.094;7.030;2023-11-21T13:43:24;72.93;;;28.52;;
22622;SDS011;11478;51.094;7.030;2023-11-21T13:45:52;75.00;;;29.85;;
22622;SDS011;11478;51.094;7.030;2023-11-21T13:48:44;76.85;;;30.65;;
22622;SDS011;11478;51.094;7.030;2023-11-21T13:51:20;79.13;;;30.67;;
22622;SDS011;11478;51.094;7.030;2023-11-21T13:53:55;74.43;;;28.65;;
22622;SDS011;11478;51.094;7.030;2023-11-21T13:56:21;75.97;;;29.35;;
22622;SDS011;11478;51.094;7.030;2023-11-21T13:58:49;62.70;;;27.98;;
22622;SDS011;11478;51.094;7.030;2023-11-21T14:01:22;73.30;;;30.30;;
22622;SDS011;11478;51.094;7.030;2023-11-21T14:04:02;69.68;;;29.10;;
22622;SDS011;11478;51.094;7.030;2023-11-21T14:06:34;78.75;;;29.95;;
22622;SDS011;11478;51.094;7.030;2023-11-21T14:09:15;69.88;;;28.63;;
22622;SDS011;11478;51.094;7.030;2023-11-21T14:11:51;76.75;;;29.48;;
22622;SDS011;11478;51.094;7.030;2023-11-21T14:14:21;67.82;;;28.17;;
22622;SDS011;11478;51.094;7.030;2023-11-21T14:16:50;74.13;;;29.98;;
22622;SDS011;11478;51.094;7.030;2023-11-21T14:19:16;81.22;;;30.10;;
22622;SDS011;11478;51.094;7.030;2023-11-21T14:21:43;77.57;;;29.70;;
22622;SDS011;11478;51.094;7.030;2023-11-21T14:24:10;79.65;;;31.25;;
22622;SDS011;11478;51.094;7.030;2023-11-21T14:26:41;81.70;;;31.85;;
22622;SDS011;11478;51.094;7.030;2023-11-21T14:29:10;78.35;;;32.95;;
22622;SDS011;11478;51.094;7.030;2023-11-21T14:31:40;88.38;;;34.30;;
22622;SDS011;11478;51.094;7.030;2023-11-21T14:34:06;89.78;;;34.08;;
22622;SDS011;11478;51.094;7.030;2023-11-21T14:36:34;87.72;;;32.42;;
22622;SDS011;11478;51.094;7.030;2023-11-21T14:39:02;82.57;;;32.55;;
22622;SDS011;11478;51.094;7.030;2023-11-21T14:41:36;88.82;;;34.30;;
22622;SDS011;11478;51.094;7.030;2023-11-21T14:44:04;88.65;;;36.30;;
22622;SDS011;11478;51.094;7.030;2023-11-21T14:46:37;90.10;;;34.40;;
22622;SDS011;11478;51.094;7.030;2023-11-21T14:49:04;97.35;;;34.85;;
22622;SDS011;11478;51.094;7.030;2023-11-21T14:51:47;103.75;;;34.92;;
22622;SDS011;11478;51.094;7.030;2023-11-21T14:54:37;89.45;;;32.75;;
22622;SDS011;11478;51.094;7.030;2023-11-21T14:57:09;98.82;;;33.33;;
22622;SDS011;11478;51.094;7.030;2023-11-21T14:59:46;100.22;;;34.17;;
22622;SDS011;11478;51.094;7.030;2023-11-21T15:02:22;90.88;;;33.08;;
22622;SDS011;11478;51.094;7.030;2023-11-21T15:05:10;99.75;;;35.80;;
22622;SDS011;11478;51.094;7.030;2023-11-21T15:07:41;94.55;;;33.40;;
22622;SDS011;11478;51.094;7.030;2023-11-21T15:10:07;59.72;;;25.90;;
22622;SDS011;11478;51.094;7.030;2023-11-21T15:12:40;57.22;;;25.02;;
22622;SDS011;11478;51.094;7.030;2023-11-21T15:15:08;46.28;;;21.63;;
22622;SDS011;11478;51.094;7.030;2023-11-21T15:17:42;46.55;;;21.33;;
22622;SDS011;11478;51.094;7.030;2023-11-21T15:20:09;44.53;;;21.75;;
22622;SDS011;11478;51.094;7.030;2023-11-21T15:22:37;43.63;;;22.02;;
22622;SDS011;11478;51.094;7.030;2023-11-21T15:25:09;41.38;;;21.70;;
22622;SDS011;11478;51.094;7.030;2023-11-21T15:27:36;42.00;;;20.67;;
22622;SDS011;11478;51.094;7.030;2023-11-21T15:30:02;41.10;;;21.88;;
22622;SDS011;11478;51.094;7.030;2023-11-21T15:32:38;49.45;;;25.17;;
22622;SDS011;11478;51.094;7.030;2023-11-21T15:35:04;38.08;;;21.15;;
22622;SDS011;11478;51.094;7.030;2023-11-21T15:37:40;43.58;;;22.10;;
22622;SDS011;11478;51.094;7.030;2023-11-21T15:40:06;41.78;;;23.10;;
22622;SDS011;11478;51.094;7.030;2023-11-21T15:42:38;38.03;;;21.33;;
22622;SDS011;11478;51.094;7.030;2023-11-21T15:45:05;35.22;;;20.42;;
22622;SDS011;11478;51.094;7.030;2023-11-21T15:50:11;38.92;;;21.00;;
22622;SDS011;11478;51.094;7.030;2023-11-21T15:52:40;37.85;;;23.38;;
22622;SDS011;11478;51.094;7.030;2023-11-21T15:55:05;43.40;;;23.73;;
22622;SDS011;11478;51.094;7.030;2023-11-21T15:57:33;45.10;;;23.38;;
22622;SDS011;11478;51.094;7.030;2023-11-21T15:59:58;41.15;;;22.10;;
22622;SDS011;11478;51.094;7.030;2023-11-21T16:02:25;37.22;;;21.65;;
22622;SDS011;11478;51.094;7.030;2023-11-21T16:04:52;38.38;;;22.17;;
22622;SDS011;11478;51.094;7.030;2023-11-21T16:07:18;39.72;;;22.80;;
22622;SDS011;11478;51.094;7.030;2023-11-21T16:09:49;43.17;;;22.98;;
22622;SDS011;11478;51.094;7.030;2023-11-21T16:12:15;38.85;;;21.75;;
22622;SDS011;11478;51.094;7.030;2023-11-21T16:14:52;37.25;;;20.58;;
22622;SDS011;11478;51.094;7.030;2023-11-21T16:17:17;35.58;;;20.45;;
22622;SDS011;11478;51.094;7.030;2023-11-21T16:19:44;36.08;;;19.52;;